Time;durP1;ratioP1;P1;durP2;ratioP2;P2;SDS_P1;SDS_P2;PMS_P1;PMS_P2;Temp;Humidity;BMP_temperature;BMP_pressure;BME280_temperature;BME280_humidity;BME280_pressure;Samples;Min_cycle;Max_cycle;Signal;HPM_P1;HPM_P2
2022/04/20 00:00:17;;;;;;;16.27;12.13;;;;;;;6.83;56.28;99557.22;4397774;32;32551;-79
2022/04/20 00:02:49;;;;;;;17.73;12.30;;;;;;;6.83;56.24;99559.13;4410765;32;34311;-79
2022/04/20 00:05:21;;;;;;;18.55;12.90;;;;;;;6.87;56.22;99558.53;4410632;32;34286;-79
2022/04/20 00:07:52;;;;;;;25.98;19.48;;;;;;;6.87;56.33;99555.81;4398301;32;34295;-79
2022/04/20 00:10:20;;;;;;;20.37;13.52;;;;;;;6.90;56.44;99551.87;4411774;32;34820;-79
2022/04/20 00:12:53;;;;;;;12.55;9.10;;;;;;;6.80;57.03;99560.34;4411397;32;32369;-78
2022/04/20 00:15:24;;;;;;;12.82;8.27;;;;;;;6.68;57.69;99559.09;4426121;32;33806;-79
2022/04/20 00:17:57;;;;;;;12.52;7.60;;;;;;;6.88;57.43;99554.78;4426055;32;34434;-79
2022/04/20 00:20:30;;;;;;;13.70;9.80;;;;;;;6.82;57.80;99565.59;4425788;32;34538;-79
2022/04/20 00:22:58;;;;;;;14.13;10.00;;;;;;;7.03;57.34;99560.25;4412717;32;31813;-79
2022/04/20 00:25:34;;;;;;;14.32;10.10;;;;;;;7.04;57.57;99563.81;4425144;32;33641;-79
2022/04/20 00:28:02;;;;;;;13.65;9.73;;;;;;;6.95;57.82;99560.34;4438063;32;35291;-79
2022/04/20 00:30:33;;;;;;;12.32;8.02;;;;;;;6.97;57.88;99557.41;4425585;32;33396;-79
2022/04/20 00:33:08;;;;;;;19.67;14.52;;;;;;;7.16;57.40;99565.84;4425498;32;34059;-79
2022/04/20 00:35:36;;;;;;;12.98;8.63;;;;;;;7.01;57.77;99553.28;4425900;32;32157;-79
2022/04/20 00:38:08;;;;;;;11.60;7.65;;;;;;;7.04;57.82;99555.62;4425595;32;34038;-79
2022/04/20 00:40:36;;;;;;;11.93;8.20;;;;;;;7.01;57.73;99550.56;4425292;32;33850;-79
2022/04/20 00:43:10;;;;;;;11.27;8.30;;;;;;;7.07;57.57;99553.38;4424261;32;34184;-79
2022/04/20 00:45:46;;;;;;;14.70;11.55;;;;;;;7.04;57.54;99553.75;4436855;32;33391;-79
2022/04/20 00:48:19;;;;;;;18.27;13.57;;;;;;;7.03;57.49;99545.75;4426262;32;34047;-79
2022/04/20 00:50:50;;;;;;;16.77;11.55;;;;;;;7.07;57.25;99550.63;4413691;32;33614;-79
2022/04/20 00:53:18;;;;;;;13.55;8.70;;;;;;;6.89;57.63;99558.37;4427898;32;32984;-78
2022/04/20 00:55:48;;;;;;;11.00;8.02;;;;;;;7.02;57.22;99563.16;4431569;32;34250;-78
2022/04/20 00:58:22;;;;;;;11.30;7.70;;;;;;;6.98;57.24;99564.56;4429602;32;35330;-79
2022/04/20 01:00:50;;;;;;;10.35;6.93;;;;;;;6.79;57.63;99569.56;4429133;32;34202;-79
2022/04/20 01:03:20;;;;;;;10.07;6.97;;;;;;;6.80;57.80;99570.41;4417627;32;34254;-79
2022/04/20 01:05:56;;;;;;;9.88;6.35;;;;;;;6.74;57.79;99566.53;4416875;32;31722;-79
2022/04/20 01:08:30;;;;;;;11.38;7.28;;;;;;;6.66;58.19;99571.22;4439522;32;34892;-79
2022/04/20 01:11:01;;;;;;;9.80;7.10;;;;;;;6.90;57.43;99569.09;4412639;32;33675;-79
2022/04/20 01:13:32;;;;;;;10.30;6.72;;;;;;;6.81;57.36;99567.47;4425420;32;33363;-79
2022/04/20 01:16:12;;;;;;;10.40;6.72;;;;;;;6.85;57.29;99570.69;4413361;32;34356;-79
2022/04/20 01:18:50;;;;;;;10.90;7.80;;;;;;;6.79;57.26;99579.63;4412958;32;33587;-79
2022/04/20 01:21:25;;;;;;;12.23;7.72;;;;;;;6.90;56.64;99571.81;4425183;32;33427;-79
2022/04/20 01:24:00;;;;;;;10.75;7.50;;;;;;;6.88;56.59;99576.59;4412845;32;31936;-79
2022/04/20 01:26:35;;;;;;;17.58;9.90;;;;;;;6.87;56.61;99574.06;4412301;32;32116;-79
2022/04/20 01:29:04;;;;;;;14.05;8.88;;;;;;;6.89;56.43;99572.84;4425003;32;34538;-79
2022/04/20 01:31:35;;;;;;;13.62;8.90;;;;;;;6.68;56.76;99575.47;4425715;32;33816;-78
2022/04/20 01:34:09;;;;;;;10.63;7.15;;;;;;;6.70;56.71;99580.72;4412638;32;33553;-79
2022/04/20 01:36:38;;;;;;;17.05;9.85;;;;;;;6.57;56.89;99584.94;4423650;32;33878;-79
2022/04/20 01:39:06;;;;;;;13.88;9.15;;;;;;;6.52;57.04;99586.53;4412621;32;34887;-79
2022/04/20 01:41:36;;;;;;;11.32;7.53;;;;;;;6.46;57.35;99585.44;4412343;32;33948;-79
2022/04/20 01:44:04;;;;;;;13.15;9.07;;;;;;;6.58;56.96;99583.06;4438831;32;34392;-79
2022/04/20 01:46:32;;;;;;;10.70;7.45;;;;;;;6.60;56.86;99583.72;4412039;32;33673;-79
2022/04/20 01:49:06;;;;;;;10.70;7.32;;;;;;;6.43;57.19;99582.22;4399896;32;33046;-79
2022/04/20 01:51:55;;;;;;;14.00;9.25;;;;;;;6.43;57.63;99580.34;4425489;32;34621;-79
2022/04/20 01:54:29;;;;;;;95.87;52.88;;;;;;;6.54;57.25;99584.47;4413629;32;31612;-79
2022/04/20 01:57:05;;;;;;;52.40;32.88;;;;;;;6.45;57.25;99586.47;4426092;32;33363;-79
2022/04/20 01:59:36;;;;;;;41.72;24.90;;;;;;;6.56;56.83;99575.06;4423551;32;34485;-79
2022/04/20 02:05:02;;;;;;;82.82;47.17;;;;;;;6.50;56.65;99583.19;4437494;32;32084;-79
2022/04/20 02:07:36;;;;;;;72.43;42.75;;;;;;;6.38;56.98;99582.78;4424742;32;34274;-79
2022/04/20 02:10:08;;;;;;;65.68;37.85;;;;;;;6.38;56.89;99580.06;4436535;32;34252;-79
2022/04/20 02:12:40;;;;;;;35.80;21.25;;;;;;;6.45;56.64;99574.72;4424501;32;34077;-79
2022/04/20 02:15:13;;;;;;;28.08;16.55;;;;;;;6.39;56.77;99578.16;4425296;32;33511;-78
2022/04/20 02:17:48;;;;;;;19.48;13.18;;;;;;;6.20;57.22;99574.94;4412518;32;33226;-79
2022/04/20 02:20:20;;;;;;;33.40;20.62;;;;;;;6.36;56.89;99562.19;4425075;32;35256;-79
2022/04/20 02:22:55;;;;;;;44.15;27.33;;;;;;;6.28;57.47;99576.72;4437190;32;34652;-79
2022/04/20 02:25:29;;;;;;;55.47;32.60;;;;;;;6.36;57.12;99578.53;4424336;32;32996;-79
2022/04/20 02:27:57;;;;;;;48.87;29.55;;;;;;;6.41;56.86;99574.22;4424457;32;32770;-79
2022/04/20 02:30:26;;;;;;;45.15;28.27;;;;;;;6.42;56.83;99570.47;4423966;32;34059;-79
2022/04/20 02:33:02;;;;;;;39.00;24.60;;;;;;;6.41;56.78;99574.22;4423713;32;33445;-79
2022/04/20 02:35:33;;;;;;;36.50;22.95;;;;;;;6.41;56.79;99576.09;4424460;32;33550;-79
2022/04/20 02:38:02;;;;;;;27.20;16.42;;;;;;;6.39;56.82;99568.13;4424068;32;34402;-79
2022/04/20 02:40:31;;;;;;;24.17;14.55;;;;;;;6.41;56.82;99576.97;4424026;32;35115;-79
2022/04/20 02:43:03;;;;;;;23.98;15.05;;;;;;;6.43;56.86;99571.31;4424238;32;33386;-79
2022/04/20 02:45:36;;;;;;;21.10;13.30;;;;;;;6.43;56.83;99571.31;4423416;32;32087;-79
2022/04/20 02:48:06;;;;;;;20.60;12.98;;;;;;;6.38;56.94;99577.31;4438036;32;33402;-79
2022/04/20 02:50:39;;;;;;;17.58;12.30;;;;;;;6.42;56.86;99566.91;4425990;32;34543;-79
2022/04/20 02:53:13;;;;;;;19.33;11.63;;;;;;;6.52;56.42;99570.19;4439059;32;34642;-79
2022/04/20 02:55:44;;;;;;;24.27;15.50;;;;;;;6.42;56.87;99575.91;4426313;32;33341;-80
2022/04/20 02:58:18;;;;;;;21.70;15.48;;;;;;;6.45;56.78;99569.25;4438652;32;32075;-79
2022/04/20 03:00:50;;;;;;;16.52;11.40;;;;;;;6.54;56.56;99577.13;4412329;32;33649;-75
2022/04/20 03:03:22;;;;;;;15.57;11.38;;;;;;;6.60;66.49;99575.53;4426362;32;34100;-74
2022/04/20 03:05:53;;;;;;;13.10;8.27;;;;;;;6.76;63.43;99577.25;4426511;32;34178;-81
2022/04/20 03:08:25;;;;;;;10.00;7.55;;;;;;;6.66;60.91;99577.53;4426737;32;33867;-76
2022/04/20 03:10:56;;;;;;;12.45;7.78;;;;;;;6.72;58.83;99576.78;4413738;32;35348;-79
2022/04/20 03:13:30;;;;;;;11.20;7.40;;;;;;;6.78;61.33;99578.75;4426509;32;33930;-79
2022/04/20 03:16:06;;;;;;;12.02;8.13;;;;;;;6.90;60.30;99584.59;4425893;32;32606;-79
2022/04/20 03:18:39;;;;;;;10.80;7.78;;;;;;;6.98;58.38;99581.78;4426752;32;33662;-80
2022/04/20 03:21:18;;;;;;;13.07;7.90;;;;;;;6.87;57.31;99582.25;4426363;32;34313;-80
2022/04/20 03:23:53;;;;;;;13.23;9.18;;;;;;;6.94;56.65;99583.19;4425858;32;34270;-80
2022/04/20 03:26:30;;;;;;;11.15;8.38;;;;;;;6.56;56.94;99579.69;4426058;32;34153;-80
2022/04/20 03:29:02;;;;;;;12.18;8.23;;;;;;;6.65;56.65;99581.28;4426370;32;34506;-80
2022/04/20 03:31:38;;;;;;;11.00;7.70;;;;;;;6.71;56.39;99591.44;4426138;32;34846;-80
2022/04/20 03:34:09;;;;;;;12.57;8.05;;;;;;;6.60;56.41;99586.44;4438490;32;34599;-80
2022/04/20 03:36:51;;;;;;;11.05;6.90;;;;;;;6.35;57.09;99591.31;4414132;32;33304;-80
2022/04/20 03:39:23;;;;;;;12.68;7.72;;;;;;;6.46;56.61;99599.06;4437837;32;33116;-80
2022/04/20 03:41:56;;;;;;;11.85;7.75;;;;;;;6.47;60.03;99594.44;4425814;32;33940;-79
2022/04/20 03:44:30;;;;;;;11.88;7.55;;;;;;;6.58;59.07;99594.81;4413471;32;33905;-80
2022/04/20 03:47:04;;;;;;;10.68;6.97;;;;;;;6.45;57.80;99601.97;4426076;32;33011;-80
2022/04/20 03:49:37;;;;;;;12.10;6.90;;;;;;;6.56;57.10;99604.22;4426063;32;33636;-80
2022/04/20 03:52:14;;;;;;;13.32;8.18;;;;;;;6.51;57.06;99603.91;4413308;32;34526;-80
2022/04/20 03:54:51;;;;;;;13.02;7.93;;;;;;;6.42;57.33;99597.72;4413220;32;32525;-80
2022/04/20 03:57:23;;;;;;;11.80;7.53;;;;;;;6.51;57.14;99603.91;4400741;32;31867;-80
2022/04/20 03:59:56;;;;;;;14.73;8.25;;;;;;;6.52;57.33;99608.34;4425145;32;33866;-80
2022/04/20 04:02:29;;;;;;;13.57;8.13;;;;;;;6.43;58.02;99604.03;4425558;32;34492;-80
2022/04/20 04:05:03;;;;;;;15.93;9.30;;;;;;;6.61;57.75;99604.50;4413752;32;34183;-80
2022/04/20 04:07:35;;;;;;;12.50;9.05;;;;;;;6.41;58.35;99609.66;4412696;32;32339;-80
2022/04/20 04:10:10;;;;;;;17.17;9.63;;;;;;;6.64;57.93;99609.59;4412775;32;33317;-80
2022/04/20 04:12:43;;;;;;;14.38;9.48;;;;;;;6.50;58.44;99607.72;4425089;32;35392;-80
2022/04/20 04:15:11;;;;;;;16.23;10.07;;;;;;;6.40;59.00;99610.69;4438232;32;34017;-80
2022/04/20 04:17:42;;;;;;;15.55;9.50;;;;;;;6.40;59.16;99615.31;4413435;32;33143;-80
2022/04/20 04:20:13;;;;;;;16.67;9.90;;;;;;;6.54;58.65;99618.03;4426419;32;34481;-80
2022/04/20 04:22:44;;;;;;;14.10;8.68;;;;;;;6.64;58.68;99620.50;4426496;32;34267;-80
2022/04/20 04:25:16;;;;;;;15.48;9.20;;;;;;;6.78;58.19;99613.37;4400861;32;33274;-80
2022/04/20 04:27:47;;;;;;;14.13;8.85;;;;;;;6.79;58.42;99624.09;4426473;32;33365;-80
2022/04/20 04:30:17;;;;;;;14.52;8.15;;;;;;;6.89;58.15;99632.00;4413562;32;33299;-78
2022/04/20 04:32:48;;;;;;;12.52;9.00;;;;;;;6.95;58.24;99625.81;4428108;32;35392;-80
2022/04/20 04:35:22;;;;;;;13.35;8.40;;;;;;;7.06;58.23;99627.22;4415352;32;34972;-79
2022/04/20 04:37:50;;;;;;;14.32;8.55;;;;;;;6.95;58.60;99625.81;4438666;32;33931;-80
2022/04/20 04:40:21;;;;;;;11.98;8.55;;;;;;;7.10;58.34;99629.41;4416508;32;33950;-79
2022/04/20 04:42:56;;;;;;;13.55;9.07;;;;;;;6.98;59.18;99641.81;4428823;32;35354;-80
2022/04/20 04:51:14;;;;;;;17.05;9.23;;;;;;;7.33;58.19;99634.72;4427591;32;33966;-80
2022/04/20 04:53:46;;;;;;;13.18;9.52;;;;;;;7.50;57.46;99629.91;4428232;32;34356;-80
2022/04/20 04:56:17;;;;;;;12.40;8.48;;;;;;;7.47;57.58;99639.31;4425772;32;32635;-80
2022/04/20 04:58:48;;;;;;;15.00;9.50;;;;;;;7.34;58.00;99641.03;4425443;32;33693;-80
2022/04/20 05:01:21;;;;;;;13.98;9.23;;;;;;;7.30;58.16;99646.03;4425148;32;33574;-80
2022/04/20 05:03:55;;;;;;;14.90;9.57;;;;;;;7.47;57.79;99646.66;4425143;32;34101;-80
2022/04/20 05:06:23;;;;;;;16.37;9.25;;;;;;;7.39;58.21;99642.16;4425191;32;33510;-80
2022/04/20 05:08:57;;;;;;;14.23;8.80;;;;;;;7.39;58.13;99639.44;4413112;32;34484;-80
2022/04/20 05:11:31;;;;;;;16.05;9.75;;;;;;;7.37;58.32;99648.84;4412916;32;33632;-80
2022/04/20 05:14:09;;;;;;;15.38;9.80;;;;;;;7.40;58.19;99645.75;4412497;32;33875;-80
2022/04/20 05:16:40;;;;;;;15.35;9.80;;;;;;;7.48;58.76;99651.94;4412880;32;34593;-80
2022/04/20 05:19:10;;;;;;;13.48;9.52;;;;;;;7.65;58.55;99649.00;4413016;32;33391;-81
2022/04/20 05:21:38;;;;;;;16.17;9.48;;;;;;;7.71;58.30;99642.78;4425780;32;34203;-81
2022/04/20 05:24:11;;;;;;;13.65;9.27;;;;;;;7.77;58.21;99648.31;4412886;32;34455;-81
2022/04/20 05:26:48;;;;;;;17.12;9.32;;;;;;;7.83;58.38;99653.00;4412688;32;33826;-81
2022/04/20 05:29:24;;;;;;;14.57;9.93;;;;;;;8.05;58.05;99648.41;4425480;32;33495;-81
2022/04/20 05:32:02;;;;;;;14.02;8.73;;;;;;;8.35;57.15;99657.37;4412842;32;33776;-81
2022/04/20 05:34:38;;;;;;;12.68;8.70;;;;;;;8.36;57.23;99652.75;4412777;32;32926;-81
2022/04/20 05:43:02;;;;;;;13.40;9.43;;;;;;;8.49;56.86;99655.59;4427503;32;33856;-81
2022/04/20 05:45:36;;;;;;;15.00;10.00;;;;;;;8.60;56.78;99652.31;4425249;32;34337;-81
2022/04/20 05:48:16;;;;;;;14.52;9.70;;;;;;;8.75;56.19;99663.19;4412694;32;33132;-81
2022/04/20 05:50:50;;;;;;;14.43;9.32;;;;;;;8.77;56.09;99653.75;4424925;32;33219;-81
2022/04/20 05:53:27;;;;;;;14.40;8.93;;;;;;;8.83;56.52;99657.56;4412770;32;34560;-81
2022/04/20 05:56:04;;;;;;;14.38;9.15;;;;;;;8.94;56.61;99656.19;4424938;32;33085;-81
2022/04/20 05:58:38;;;;;;;14.80;8.95;;;;;;;9.08;56.26;99653.34;4424709;32;34873;-81
2022/04/20 06:01:11;;;;;;;12.70;8.38;;;;;;;9.45;55.38;99654.81;4411657;32;32138;-81
2022/04/20 06:03:48;;;;;;;19.92;12.05;;;;;;;9.73;54.46;99642.94;4412229;32;32286;-81
2022/04/20 06:06:21;;;;;;;23.90;14.63;;;;;;;9.54;53.99;99641.78;4412436;32;34294;-81
2022/04/20 06:08:52;;;;;;;15.27;9.45;;;;;;;9.81;53.29;99642.72;4412436;32;33735;-81
2022/04/20 06:11:30;;;;;;;13.02;8.20;;;;;;;10.07;53.74;99648.31;4436687;32;31898;-81
2022/04/20 06:14:10;;;;;;;12.43;7.87;;;;;;;10.34;52.68;99642.91;4412519;32;33813;-81
2022/04/20 06:16:41;;;;;;;13.93;7.62;;;;;;;10.57;52.43;99646.94;4412708;32;34283;-81
2022/04/20 06:19:14;;;;;;;18.45;11.57;;;;;;;10.73;50.72;99642.09;4411942;32;34171;-81
2022/04/20 06:21:48;;;;;;;16.23;10.43;;;;;;;10.86;50.96;99640.19;4412046;32;33083;-81
2022/04/20 06:24:27;;;;;;;21.87;13.43;;;;;;;10.85;50.21;99645.88;4413845;32;32230;-81
2022/04/20 06:27:01;;;;;;;15.98;8.73;;;;;;;10.87;49.29;99641.88;4426903;32;34578;-81
2022/04/20 06:29:38;;;;;;;11.90;7.18;;;;;;;11.02;48.45;99629.81;4427235;32;33954;-81
2022/04/20 06:32:13;;;;;;;10.57;6.90;;;;;;;11.31;47.61;99633.97;4414342;32;33319;-81
2022/04/20 06:34:47;;;;;;;11.65;7.00;;;;;;;11.77;47.19;99633.81;4426415;32;34817;-81
2022/04/20 06:37:28;;;;;;;9.55;6.55;;;;;;;12.53;46.70;99631.03;4415948;32;34686;-81
2022/04/20 06:40:03;;;;;;;9.88;6.35;;;;;;;13.14;45.00;99624.78;4401704;32;32769;-81
2022/04/20 06:42:40;;;;;;;10.85;6.43;;;;;;;12.93;43.16;99626.06;4413995;32;33455;-81
2022/04/20 06:45:19;;;;;;;9.30;6.20;;;;;;;13.07;42.50;99624.84;4415316;32;32665;-81
2022/04/20 06:48:05;;;;;;;10.65;6.55;;;;;;;13.62;42.29;99622.19;4427104;32;34364;-81
2022/04/20 06:50:46;;;;;;;9.52;6.37;;;;;;;13.91;41.79;99625.19;4414197;32;32584;-81
2022/04/20 06:59:24;;;;;;;12.77;9.15;;;;;;;13.54;40.86;99613.37;4387761;32;33921;-82
2022/04/20 07:02:05;;;;;;;8.90;6.28;;;;;;;14.15;40.79;99605.75;4414807;32;34195;-82
2022/04/20 07:04:42;;;;;;;10.55;5.80;;;;;;;14.48;40.01;99604.41;4414038;32;33477;-82
2022/04/20 07:07:15;;;;;;;7.75;5.32;;;;;;;14.66;39.59;99607.09;4414417;32;34456;-82
2022/04/20 07:09:47;;;;;;;8.68;5.40;;;;;;;15.22;38.34;99600.16;4414843;32;35288;-82
2022/04/20 07:12:19;;;;;;;9.73;5.53;;;;;;;15.09;37.13;99606.75;4426548;32;33098;-82
2022/04/20 07:14:54;;;;;;;7.15;5.32;;;;;;;15.45;36.86;99597.37;4413727;32;31878;-82
2022/04/20 07:17:29;;;;;;;6.95;4.43;;;;;;;15.26;36.69;99600.50;4413883;32;33506;-82
2022/04/20 07:20:13;;;;;;;8.90;5.00;;;;;;;15.59;36.52;99597.97;4426563;32;33026;-82
2022/04/20 07:22:54;;;;;;;8.18;5.05;;;;;;;15.44;36.30;99601.22;4426607;32;33589;-81
2022/04/20 07:25:33;;;;;;;10.93;5.85;;;;;;;15.35;36.67;99605.44;4413910;32;33171;-82
2022/04/20 07:28:13;;;;;;;11.27;6.87;;;;;;;15.19;36.91;99600.62;4414151;32;32241;-82
2022/04/20 07:30:48;;;;;;;8.82;5.55;;;;;;;15.45;36.36;99602.91;4426262;32;32997;-82
2022/04/20 07:33:29;;;;;;;9.25;5.47;;;;;;;15.35;35.94;99602.66;4413780;32;34343;-82
2022/04/20 07:36:02;;;;;;;8.13;5.55;;;;;;;15.64;36.90;99602.75;4439047;32;33216;-81
2022/04/20 07:38:45;;;;;;;7.82;5.55;;;;;;;15.84;35.49;99597.66;4414054;32;33528;-82
2022/04/20 07:41:19;;;;;;;8.73;5.28;;;;;;;16.08;35.17;99604.78;4425569;32;33791;-82
2022/04/20 07:43:58;;;;;;;9.38;6.03;;;;;;;15.94;34.58;99597.84;4426034;32;34123;-82
2022/04/20 07:46:34;;;;;;;9.55;5.72;;;;;;;15.84;34.41;99602.34;4439051;32;33506;-81
2022/04/20 07:52:01;;;;;;;9.68;5.25;;;;;;;15.98;34.65;99603.75;4438955;32;35209;-81
2022/04/20 07:54:33;;;;;;;8.85;5.43;;;;;;;16.08;34.16;99598.41;4413690;32;33842;-81
2022/04/20 07:57:05;;;;;;;9.63;5.95;;;;;;;16.22;34.18;99597.03;4438598;32;33410;-81
2022/04/20 07:59:44;;;;;;;8.43;5.30;;;;;;;16.06;33.69;99606.13;4425727;32;34645;-77
2022/04/20 08:02:23;;;;;;;7.37;5.18;;;;;;;16.37;33.92;99599.22;4438176;32;34410;-77
2022/04/20 08:05:01;;;;;;;10.32;6.15;;;;;;;16.39;33.89;99595.09;4413272;32;32919;-77
2022/04/20 08:07:34;;;;;;;10.27;5.82;;;;;;;15.91;34.11;99609.41;4438579;32;33509;-77
2022/04/20 08:10:15;;;;;;;10.82;6.30;;;;;;;15.98;34.12;99596.28;4438242;32;32016;-77
2022/04/20 08:12:49;;;;;;;9.80;6.70;;;;;;;15.30;34.93;99597.03;4437556;32;35126;-79
2022/04/20 08:15:22;;;;;;;11.70;6.40;;;;;;;15.69;35.91;99594.56;4426238;32;34228;-80
2022/04/20 08:17:56;;;;;;;17.87;12.32;;;;;;;15.73;35.36;99588.28;4424318;32;33221;-80
2022/04/20 08:20:28;;;;;;;39.60;23.58;;;;;;;15.98;34.71;99585.19;4438394;32;33812;-79
2022/04/20 08:23:07;;;;;;;20.37;13.95;;;;;;;16.47;35.08;99580.84;4431617;32;34139;-79
2022/04/20 08:25:46;;;;;;;10.07;6.22;;;;;;;16.75;34.08;99584.69;4453980;32;33487;-79
2022/04/20 08:28:22;;;;;;;12.57;6.05;;;;;;;16.52;32.46;99577.31;4427223;32;32122;-79
2022/04/20 08:31:01;;;;;;;9.02;5.75;;;;;;;16.43;32.28;99573.28;4412696;32;32413;-79
2022/04/20 08:33:43;;;;;;;20.60;6.70;;;;;;;16.93;32.17;99564.16;4426220;32;34598;-79
2022/04/20 08:36:24;;;;;;;14.43;6.10;;;;;;;16.36;32.17;99567.91;4425647;32;34717;-79
2022/04/20 08:39:03;;;;;;;12.37;5.12;;;;;;;16.53;32.03;99572.63;4426831;32;32116;-79
2022/04/20 08:41:42;;;;;;;7.50;5.03;;;;;;;16.74;31.66;99574.69;4421374;32;34471;-79
2022/04/20 08:44:28;;;;;;;7.90;4.37;;;;;;;16.69;31.86;99575.44;4413362;32;33028;-79
2022/04/20 08:47:02;;;;;;;15.32;8.88;;;;;;;15.80;30.06;99577.91;4412260;32;33923;-79
2022/04/20 08:49:44;;;;;;;7.18;4.37;;;;;;;16.46;30.12;99567.25;4411358;32;33550;-79
2022/04/20 08:55:18;;;;;;;7.68;4.50;;;;;;;16.26;31.09;99567.72;4434737;32;33905;-79
2022/04/20 08:57:53;;;;;;;7.72;4.70;;;;;;;16.72;30.35;99563.84;4422131;32;32721;-80
2022/04/20 09:00:29;;;;;;;6.97;4.47;;;;;;;16.85;29.49;99561.84;4416182;32;32867;-80
2022/04/20 09:03:05;;;;;;;7.47;4.10;;;;;;;17.43;29.17;99559.37;4425712;32;34407;-79
2022/04/20 09:05:41;;;;;;;6.85;3.87;;;;;;;17.47;28.22;99559.69;4413409;32;34376;-80
2022/04/20 09:08:13;;;;;;;;;;;;;;;17.43;28.23;99564.91;4397802;32;32843;-79
2022/04/20 09:10:54;;;;;;;6.87;4.37;;;;;;;17.18;28.62;99555.38;4410529;32;33432;-79
2022/04/20 09:13:39;;;;;;;7.68;4.50;;;;;;;17.81;29.09;99559.56;4411039;32;33891;-80
2022/04/20 09:16:21;;;;;;;7.93;4.70;;;;;;;17.66;28.42;99557.44;4410831;32;34350;-80
2022/04/20 09:18:58;;;;;;;8.63;5.72;;;;;;;18.09;27.95;99565.72;4410249;32;33887;-80
2022/04/20 09:21:27;;;;;;;;;;;;;;;18.18;26.23;99559.72;4422872;32;34131;-79
2022/04/20 09:24:10;;;;;;;8.30;5.30;;;;;;;17.68;26.59;99555.25;4413449;32;33355;-80
2022/04/20 09:27:11;;;;;;;8.85;5.18;;;;;;;18.73;27.58;99559.41;4411896;32;32904;-80
2022/04/20 09:29:55;;;;;;;6.97;4.57;;;;;;;19.05;26.37;99551.00;4423114;32;34228;-80
2022/04/20 09:33:00;;;;;;;7.72;4.32;;;;;;;19.42;24.10;99545.41;4405619;32;31914;-80
2022/04/20 09:35:52;;;;;;;9.77;5.62;;;;;;;20.27;24.98;99534.81;4423283;32;34043;-80
2022/04/20 09:38:28;;;;;;;9.43;5.30;;;;;;;20.41;25.07;99536.00;4425494;32;35121;-80
2022/04/20 09:41:10;;;;;;;11.18;5.72;;;;;;;19.53;24.65;99537.94;4412490;32;32355;-79
2022/04/20 09:44:12;;;;;;;9.27;5.53;;;;;;;19.16;24.93;99544.41;4411670;32;32661;-80
2022/04/20 09:50:06;;;;;;;8.80;4.82;;;;;;;19.78;25.47;99543.63;4419779;32;35060;-80
2022/04/20 09:52:44;;;;;;;8.30;5.43;;;;;;;19.79;24.71;99531.38;4416952;32;34114;-80
2022/04/20 09:55:35;;;;;;;8.40;5.75;;;;;;;20.39;25.18;99527.91;4410530;32;31755;-80
2022/04/20 09:58:19;;;;;;;7.35;5.22;;;;;;;20.94;23.96;99528.16;4407056;32;34464;-80
2022/04/20 10:00:54;;;;;;;9.90;5.80;;;;;;;20.52;23.57;99531.25;4431508;32;33009;-80
2022/04/20 10:03:33;;;;;;;10.18;5.15;;;;;;;20.58;23.12;99519.84;4411776;32;32510;-80
2022/04/20 10:06:15;;;;;;;7.20;4.97;;;;;;;20.67;23.45;99522.91;4430513;32;31802;-80
2022/04/20 10:08:57;;;;;;;8.70;4.93;;;;;;;20.86;24.27;99523.97;4424298;32;32576;-79
2022/04/20 10:11:31;;;;;;;10.55;5.60;;;;;;;20.34;23.70;99525.09;4424599;32;34300;-79
2022/04/20 10:17:07;;;;;;;12.13;4.82;;;;;;;20.41;23.53;99529.59;4420433;32;31744;-79
2022/04/20 10:19:42;;;;;;;7.85;4.93;;;;;;;20.12;24.42;99518.94;4410745;32;32432;-80
2022/04/20 10:22:23;;;;;;;9.20;5.47;;;;;;;20.63;24.14;99528.22;4411880;32;34391;-80
2022/04/20 10:25:01;;;;;;;6.95;4.05;;;;;;;20.88;22.95;99521.75;4423615;32;34045;-80
2022/04/20 10:28:04;;;;;;;7.00;4.37;;;;;;;19.38;21.31;99533.97;4414296;32;32875;-79
2022/04/20 10:30:38;;;;;;;9.38;4.53;;;;;;;19.22;22.91;99520.25;4429934;32;35071;-79
2022/04/20 10:33:31;;;;;;;7.20;5.10;;;;;;;19.98;22.94;99515.00;4430711;32;33400;-79
2022/04/20 10:36:18;;;;;;;7.50;4.25;;;;;;;19.81;24.00;99515.22;4424448;32;34749;-79
2022/04/20 10:39:27;;;;;;;6.55;4.70;;;;;;;19.45;24.28;99517.03;4415519;32;33291;-79
2022/04/20 10:42:23;;;;;;;7.90;4.93;;;;;;;19.68;24.50;99507.38;4414942;32;33370;-79
2022/04/20 10:45:12;;;;;;;7.47;4.53;;;;;;;20.12;23.81;99505.00;4422393;32;33723;-80
2022/04/20 10:48:11;;;;;;;7.60;4.40;;;;;;;19.95;22.92;99510.81;4422192;32;34497;-80
2022/04/20 10:51:22;;;;;;;8.63;6.50;;;;;;;19.44;23.04;99515.34;4413315;32;33442;-80
2022/04/20 10:54:34;;;;;;;7.85;6.50;;;;;;;18.50;27.09;99521.66;4410200;32;34411;-80
2022/04/20 10:57:37;;;;;;;7.68;5.35;;;;;;;18.64;27.50;99516.53;4404762;32;33085;-79
2022/04/20 11:00:20;;;;;;;9.20;5.82;;;;;;;18.47;24.83;99505.50;4428623;32;34064;-80
2022/04/20 11:03:03;;;;;;;13.93;8.27;;;;;;;18.95;25.68;99504.50;4413274;32;33340;-79
2022/04/20 11:05:57;;;;;;;11.32;7.00;;;;;;;19.52;23.65;99494.50;4410085;32;33407;-79
2022/04/20 11:08:36;;;;;;;8.57;5.32;;;;;;;19.93;23.15;99493.53;4422843;32;34476;-79
2022/04/20 11:20:03;;;;;;;8.10;5.40;;;;;;;20.87;21.39;99489.41;4430515;32;34273;-79
2022/04/20 11:22:47;;;;;;;8.48;5.07;;;;;;;20.69;21.85;99502.00;4410821;32;32621;-79
2022/04/20 11:25:22;;;;;;;7.18;5.10;;;;;;;20.05;21.86;99493.28;4431096;32;32088;-79
2022/04/20 11:28:06;;;;;;;6.28;4.40;;;;;;;19.84;22.33;99486.84;4432690;32;33686;-80
2022/04/20 11:30:53;;;;;;;8.10;4.40;;;;;;;20.16;22.79;99483.81;4432212;32;34248;-79
2022/04/20 11:33:29;;;;;;;8.38;5.60;;;;;;;20.49;22.07;99490.84;4432179;32;34627;-80
2022/04/20 11:36:02;;;;;;;8.70;5.75;;;;;;;20.14;21.79;99488.00;4430670;32;33990;-80
2022/04/20 11:38:46;;;;;;;8.40;5.40;;;;;;;20.57;22.35;99484.72;4429753;32;33586;-80
2022/04/20 11:41:20;;;;;;;8.45;5.45;;;;;;;21.08;21.59;99475.41;4439605;32;34653;-80
2022/04/20 11:44:07;;;;;;;8.23;5.70;;;;;;;20.30;21.58;99486.88;4412975;32;32902;-80
2022/04/20 11:46:54;;;;;;;8.60;5.07;;;;;;;20.52;21.55;99478.28;4425609;32;33048;-79
2022/04/20 11:49:56;;;;;;;6.57;4.80;;;;;;;20.69;21.33;99478.84;4413050;32;33612;-79
2022/04/20 11:52:34;;;;;;;10.55;5.40;;;;;;;20.84;21.85;99472.38;4414615;32;34356;-79
2022/04/20 11:55:17;;;;;;;8.93;6.40;;;;;;;20.62;22.46;99476.34;4413666;32;32477;-80
2022/04/20 11:58:16;;;;;;;9.07;6.37;;;;;;;20.20;22.00;99481.31;4413595;32;31722;-80
2022/04/20 12:01:03;;;;;;;11.82;6.97;;;;;;;19.99;22.34;99484.09;4425696;32;34455;-79
2022/04/20 12:03:41;;;;;;;8.50;6.68;;;;;;;19.76;22.65;99489.31;4426101;32;34337;-79
2022/04/20 12:06:14;;;;;;;10.52;6.05;;;;;;;19.97;22.73;99469.59;4400738;32;32229;-79
2022/04/20 12:08:56;;;;;;;8.23;6.00;;;;;;;20.08;22.88;99476.03;4425381;32;31856;-79
2022/04/20 12:11:45;;;;;;;10.07;6.87;;;;;;;20.43;22.71;99464.06;4438027;32;32390;-79
2022/04/20 12:14:22;;;;;;;8.68;6.12;;;;;;;20.24;21.13;99451.78;4438588;32;34380;-79
2022/04/20 12:17:09;;;;;;;8.15;5.80;;;;;;;20.35;21.33;99459.03;4410742;32;32589;-79
2022/04/20 12:19:59;;;;;;;8.48;6.28;;;;;;;18.80;21.42;99470.22;4410275;32;33988;-79
2022/04/20 12:22:45;;;;;;;10.43;6.63;;;;;;;19.00;22.24;99473.94;4429296;32;33870;-79
2022/04/20 12:25:27;;;;;;;8.55;5.80;;;;;;;18.95;22.44;99461.94;4432840;32;34181;-79
2022/04/20 12:31:07;;;;;;;8.05;6.03;;;;;;;19.57;22.52;99452.78;4431063;32;34133;-79
2022/04/20 12:33:43;;;;;;;9.02;5.97;;;;;;;19.89;22.72;99445.06;4429692;32;33208;-79
2022/04/20 12:36:16;;;;;;;9.88;6.18;;;;;;;19.81;22.46;99437.25;4403018;32;32592;-79
2022/04/20 12:38:59;;;;;;;7.87;5.78;;;;;;;19.46;21.79;99457.47;4425329;32;32313;-79
2022/04/20 12:41:44;;;;;;;7.07;5.20;;;;;;;19.33;23.53;99441.28;4422823;32;32798;-83
2022/04/20 12:44:40;;;;;;;11.07;5.95;;;;;;;19.89;22.57;99445.06;4409366;32;33281;-79
2022/04/20 12:47:20;;;;;;;8.43;5.82;;;;;;;20.04;21.93;99449.84;4432282;32;34964;-79
2022/04/20 12:50:03;;;;;;;7.65;5.68;;;;;;;20.41;21.74;99443.16;4430727;32;32549;-79
2022/04/20 12:52:49;;;;;;;8.10;5.72;;;;;;;20.02;21.36;99452.06;4430794;32;33933;-79
2022/04/20 12:55:22;;;;;;;9.70;6.28;;;;;;;19.36;21.66;99447.13;4423587;32;34499;-79
2022/04/20 13:03:46;;;;;;;9.70;6.28;;;;;;;18.41;23.68;99454.63;4432028;32;31777;-79
2022/04/20 13:06:24;;;;;;;8.38;5.60;;;;;;;18.13;24.43;99443.84;4416501;32;248727;-79